sensor_id;sensor_type;location;lat;lon;timestamp;P1;durP1;ratioP1;P2;durP2;ratioP2
62927;SDS011;51070;52.236;-0.892;2023-06-19T00:00:50;7.60;;;6.80;;
62927;SDS011;51070;52.236;-0.892;2023-06-19T00:03:15;7.40;;;6.60;;
62927;SDS011;51070;52.236;-0.892;2023-06-19T00:05:41;8.30;;;6.70;;
62927;SDS011;51070;52.236;-0.892;2023-06-19T00:08:06;8.40;;;7.50;;
62927;SDS011;51070;52.236;-0.892;2023-06-19T00:10:32;7.60;;;6.60;;
62927;SDS011;51070;52.236;-0.892;2023-06-19T00:12:58;9.20;;;7.60;;
62927;SDS011;51070;52.236;-0.892;2023-06-19T00:15:23;7.60;;;6.00;;
62927;SDS011;51070;52.236;-0.892;2023-06-19T00:17:48;9.40;;;7.30;;
62927;SDS011;51070;52.236;-0.892;2023-06-19T00:20:14;9.90;;;7.10;;
62927;SDS011;51070;52.236;-0.892;2023-06-19T00:22:40;8.60;;;7.00;;
62927;SDS011;51070;52.236;-0.892;2023-06-19T00:25:08;9.10;;;7.80;;
62927;SDS011;51070;52.236;-0.892;2023-06-19T00:27:34;8.70;;;7.60;;
62927;SDS011;51070;52.236;-0.892;2023-06-19T00:30:00;9.00;;;7.50;;
62927;SDS011;51070;52.236;-0.892;2023-06-19T00:32:27;9.40;;;7.40;;
62927;SDS011;51070;52.236;-0.892;2023-06-19T00:34:53;8.50;;;7.00;;
62927;SDS011;51070;52.236;-0.892;2023-06-19T00:37:19;8.30;;;6.90;;
62927;SDS011;51070;52.236;-0.892;2023-06-19T00:39:44;9.20;;;7.10;;
62927;SDS011;51070;52.236;-0.892;2023-06-19T00:42:10;8.40;;;7.50;;
62927;SDS011;51070;52.236;-0.892;2023-06-19T00:44:35;8.90;;;7.30;;
62927;SDS011;51070;52.236;-0.892;2023-06-19T00:47:01;8.00;;;7.10;;
62927;SDS011;51070;52.236;-0.892;2023-06-19T00:49:28;8.50;;;7.50;;
62927;SDS011;51070;52.236;-0.892;2023-06-19T00:51:55;11.60;;;8.20;;
62927;SDS011;51070;52.236;-0.892;2023-06-19T00:54:24;9.50;;;7.10;;
62927;SDS011;51070;52.236;-0.892;2023-06-19T00:56:49;9.30;;;8.00;;
62927;SDS011;51070;52.236;-0.892;2023-06-19T00:59:16;11.40;;;8.70;;
62927;SDS011;51070;52.236;-0.892;2023-06-19T01:01:43;9.70;;;7.60;;
62927;SDS011;51070;52.236;-0.892;2023-06-19T01:04:09;8.30;;;7.40;;
62927;SDS011;51070;52.236;-0.892;2023-06-19T01:06:38;10.10;;;8.30;;
62927;SDS011;51070;52.236;-0.892;2023-06-19T01:09:25;11.70;;;7.70;;
62927;SDS011;51070;52.236;-0.892;2023-06-19T01:11:57;9.40;;;8.40;;
62927;SDS011;51070;52.236;-0.892;2023-06-19T01:14:28;9.80;;;8.10;;
62927;SDS011;51070;52.236;-0.892;2023-06-19T01:17:01;8.90;;;8.00;;
62927;SDS011;51070;52.236;-0.892;2023-06-19T01:19:27;11.50;;;8.90;;
62927;SDS011;51070;52.236;-0.892;2023-06-19T01:21:53;9.90;;;8.80;;
62927;SDS011;51070;52.236;-0.892;2023-06-19T01:24:19;11.60;;;8.80;;
62927;SDS011;51070;52.236;-0.892;2023-06-19T01:26:44;10.40;;;8.90;;
62927;SDS011;51070;52.236;-0.892;2023-06-19T01:29:13;10.80;;;8.70;;
62927;SDS011;51070;52.236;-0.892;2023-06-19T01:34:44;9.60;;;8.40;;
62927;SDS011;51070;52.236;-0.892;2023-06-19T01:37:11;9.10;;;8.00;;
62927;SDS011;51070;52.236;-0.892;2023-06-19T01:39:38;10.10;;;8.30;;
62927;SDS011;51070;52.236;-0.892;2023-06-19T01:42:05;13.20;;;9.50;;
62927;SDS011;51070;52.236;-0.892;2023-06-19T01:44:35;11.70;;;9.20;;
62927;SDS011;51070;52.236;-0.892;2023-06-19T01:47:07;10.20;;;8.70;;
62927;SDS011;51070;52.236;-0.892;2023-06-19T01:49:34;11.00;;;9.80;;
62927;SDS011;51070;52.236;-0.892;2023-06-19T01:51:59;11.50;;;8.60;;
62927;SDS011;51070;52.236;-0.892;2023-06-19T01:54:26;11.80;;;8.80;;
62927;SDS011;51070;52.236;-0.892;2023-06-19T01:56:51;12.60;;;9.10;;
62927;SDS011;51070;52.236;-0.892;2023-06-19T01:59:17;11.90;;;8.60;;
62927;SDS011;51070;52.236;-0.892;2023-06-19T02:01:46;12.40;;;8.80;;
62927;SDS011;51070;52.236;-0.892;2023-06-19T02:04:11;12.10;;;9.60;;
62927;SDS011;51070;52.236;-0.892;2023-06-19T02:06:37;10.90;;;8.80;;
62927;SDS011;51070;52.236;-0.892;2023-06-19T02:09:02;10.80;;;9.40;;
62927;SDS011;51070;52.236;-0.892;2023-06-19T02:11:27;12.20;;;9.50;;
62927;SDS011;51070;52.236;-0.892;2023-06-19T02:13:53;10.60;;;9.50;;
62927;SDS011;51070;52.236;-0.892;2023-06-19T02:16:18;9.80;;;8.70;;
62927;SDS011;51070;52.236;-0.892;2023-06-19T02:18:44;12.90;;;10.20;;
62927;SDS011;51070;52.236;-0.892;2023-06-19T02:21:09;14.70;;;9.30;;
62927;SDS011;51070;52.236;-0.892;2023-06-19T02:23:34;10.00;;;8.50;;
62927;SDS011;51070;52.236;-0.892;2023-06-19T02:26:00;9.50;;;8.10;;
62927;SDS011;51070;52.236;-0.892;2023-06-19T02:28:25;11.60;;;9.50;;
62927;SDS011;51070;52.236;-0.892;2023-06-19T02:30:52;11.70;;;9.00;;
62927;SDS011;51070;52.236;-0.892;2023-06-19T02:35:44;10.10;;;8.70;;
62927;SDS011;51070;52.236;-0.892;2023-06-19T02:38:10;12.60;;;9.60;;
62927;SDS011;51070;52.236;-0.892;2023-06-19T02:40:37;10.80;;;9.60;;
62927;SDS011;51070;52.236;-0.892;2023-06-19T02:43:03;11.30;;;9.60;;
62927;SDS011;51070;52.236;-0.892;2023-06-19T02:45:29;12.30;;;9.20;;
62927;SDS011;51070;52.236;-0.892;2023-06-19T02:47:54;9.80;;;8.20;;
62927;SDS011;51070;52.236;-0.892;2023-06-19T02:50:20;11.60;;;8.50;;
62927;SDS011;51070;52.236;-0.892;2023-06-19T02:52:45;12.80;;;8.70;;
62927;SDS011;51070;52.236;-0.892;2023-06-19T02:55:10;10.00;;;8.60;;
62927;SDS011;51070;52.236;-0.892;2023-06-19T02:57:36;12.20;;;8.50;;
62927;SDS011;51070;52.236;-0.892;2023-06-19T03:00:01;10.90;;;8.70;;
62927;SDS011;51070;52.236;-0.892;2023-06-19T03:02:28;10.20;;;8.70;;
62927;SDS011;51070;52.236;-0.892;2023-06-19T03:04:53;10.10;;;8.60;;
62927;SDS011;51070;52.236;-0.892;2023-06-19T03:07:19;11.00;;;8.60;;
62927;SDS011;51070;52.236;-0.892;2023-06-19T03:09:44;10.30;;;8.10;;
62927;SDS011;51070;52.236;-0.892;2023-06-19T03:12:09;12.70;;;8.10;;
62927;SDS011;51070;52.236;-0.892;2023-06-19T03:14:35;12.40;;;8.50;;
62927;SDS011;51070;52.236;-0.892;2023-06-19T03:17:00;10.00;;;8.50;;
62927;SDS011;51070;52.236;-0.892;2023-06-19T03:19:26;11.10;;;8.70;;
62927;SDS011;51070;52.236;-0.892;2023-06-19T03:21:51;12.30;;;8.70;;
62927;SDS011;51070;52.236;-0.892;2023-06-19T03:24:16;10.00;;;8.10;;
62927;SDS011;51070;52.236;-0.892;2023-06-19T03:26:42;11.70;;;8.20;;
62927;SDS011;51070;52.236;-0.892;2023-06-19T03:29:07;8.50;;;7.60;;
62927;SDS011;51070;52.236;-0.892;2023-06-19T03:31:33;11.60;;;8.40;;
62927;SDS011;51070;52.236;-0.892;2023-06-19T03:33:58;10.00;;;7.60;;
62927;SDS011;51070;52.236;-0.892;2023-06-19T03:36:23;10.50;;;7.70;;
62927;SDS011;51070;52.236;-0.892;2023-06-19T03:38:49;8.20;;;7.00;;
62927;SDS011;51070;52.236;-0.892;2023-06-19T03:41:14;9.90;;;7.70;;
62927;SDS011;51070;52.236;-0.892;2023-06-19T03:43:39;8.20;;;6.80;;
62927;SDS011;51070;52.236;-0.892;2023-06-19T03:46:05;9.60;;;8.10;;
62927;SDS011;51070;52.236;-0.892;2023-06-19T03:48:30;9.90;;;7.30;;
62927;SDS011;51070;52.236;-0.892;2023-06-19T03:50:56;7.10;;;5.40;;
62927;SDS011;51070;52.236;-0.892;2023-06-19T03:53:21;10.30;;;7.10;;
62927;SDS011;51070;52.236;-0.892;2023-06-19T03:55:47;8.80;;;6.80;;
62927;SDS011;51070;52.236;-0.892;2023-06-19T03:58:12;9.60;;;7.00;;
62927;SDS011;51070;52.236;-0.892;2023-06-19T04:00:38;9.10;;;7.30;;
62927;SDS011;51070;52.236;-0.892;2023-06-19T04:03:03;9.50;;;6.30;;
62927;SDS011;51070;52.236;-0.892;2023-06-19T04:05:29;8.80;;;7.00;;
62927;SDS011;51070;52.236;-0.892;2023-06-19T04:07:54;9.20;;;6.80;;
62927;SDS011;51070;52.236;-0.892;2023-06-19T04:10:19;9.10;;;6.70;;
62927;SDS011;51070;52.236;-0.892;2023-06-19T04:12:45;10.00;;;6.50;;
62927;SDS011;51070;52.236;-0.892;2023-06-19T04:15:11;9.90;;;7.30;;
62927;SDS011;51070;52.236;-0.892;2023-06-19T04:17:36;8.20;;;6.70;;
62927;SDS011;51070;52.236;-0.892;2023-06-19T04:20:02;10.40;;;7.30;;
62927;SDS011;51070;52.236;-0.892;2023-06-19T04:22:36;11.50;;;6.90;;
62927;SDS011;51070;52.236;-0.892;2023-06-19T04:25:04;9.10;;;7.00;;
62927;SDS011;51070;52.236;-0.892;2023-06-19T04:27:31;9.00;;;6.50;;
62927;SDS011;51070;52.236;-0.892;2023-06-19T04:29:56;9.40;;;6.80;;
62927;SDS011;51070;52.236;-0.892;2023-06-19T04:32:21;9.50;;;7.50;;
62927;SDS011;51070;52.236;-0.892;2023-06-19T04:34:47;12.40;;;7.70;;
62927;SDS011;51070;52.236;-0.892;2023-06-19T04:37:12;10.40;;;6.80;;
62927;SDS011;51070;52.236;-0.892;2023-06-19T04:39:38;9.10;;;6.90;;
62927;SDS011;51070;52.236;-0.892;2023-06-19T04:42:03;6.80;;;5.20;;
62927;SDS011;51070;52.236;-0.892;2023-06-19T04:44:29;8.30;;;7.10;;
62927;SDS011;51070;52.236;-0.892;2023-06-19T04:46:59;9.10;;;6.30;;
62927;SDS011;51070;52.236;-0.892;2023-06-19T04:49:29;12.50;;;7.60;;
62927;SDS011;51070;52.236;-0.892;2023-06-19T04:51:55;7.80;;;6.50;;
62927;SDS011;51070;52.236;-0.892;2023-06-19T04:54:22;7.80;;;6.20;;
62927;SDS011;51070;52.236;-0.892;2023-06-19T04:56:47;9.10;;;6.50;;
62927;SDS011;51070;52.236;-0.892;2023-06-19T04:59:13;10.60;;;6.10;;
62927;SDS011;51070;52.236;-0.892;2023-06-19T05:01:43;9.30;;;6.10;;
62927;SDS011;51070;52.236;-0.892;2023-06-19T05:04:09;8.60;;;5.90;;
62927;SDS011;51070;52.236;-0.892;2023-06-19T05:06:36;8.00;;;6.00;;
62927;SDS011;51070;52.236;-0.892;2023-06-19T05:09:02;10.50;;;6.60;;
62927;SDS011;51070;52.236;-0.892;2023-06-19T05:11:28;9.20;;;6.10;;
62927;SDS011;51070;52.236;-0.892;2023-06-19T05:13:53;9.20;;;5.70;;
62927;SDS011;51070;52.236;-0.892;2023-06-19T05:16:18;9.20;;;6.30;;
62927;SDS011;51070;52.236;-0.892;2023-06-19T05:18:45;10.10;;;6.80;;
62927;SDS011;51070;52.236;-0.892;2023-06-19T05:21:10;8.30;;;6.50;;
62927;SDS011;51070;52.236;-0.892;2023-06-19T05:23:36;12.20;;;6.30;;
62927;SDS011;51070;52.236;-0.892;2023-06-19T05:26:03;7.90;;;5.80;;
62927;SDS011;51070;52.236;-0.892;2023-06-19T05:28:29;10.80;;;7.00;;
62927;SDS011;51070;52.236;-0.892;2023-06-19T05:30:55;9.60;;;6.60;;
62927;SDS011;51070;52.236;-0.892;2023-06-19T05:33:20;7.80;;;6.50;;
62927;SDS011;51070;52.236;-0.892;2023-06-19T05:35:45;9.20;;;6.50;;
62927;SDS011;51070;52.236;-0.892;2023-06-19T05:38:17;9.40;;;7.00;;
62927;SDS011;51070;52.236;-0.892;2023-06-19T05:40:42;7.80;;;5.60;;
62927;SDS011;51070;52.236;-0.892;2023-06-19T05:43:08;9.90;;;6.80;;
62927;SDS011;51070;52.236;-0.892;2023-06-19T05:45:33;8.30;;;6.70;;
62927;SDS011;51070;52.236;-0.892;2023-06-19T05:47:58;22.50;;;8.20;;
62927;SDS011;51070;52.236;-0.892;2023-06-19T05:50:24;10.20;;;6.20;;
62927;SDS011;51070;52.236;-0.892;2023-06-19T05:52:49;8.20;;;6.40;;
62927;SDS011;51070;52.236;-0.892;2023-06-19T05:55:14;10.10;;;7.70;;
62927;SDS011;51070;52.236;-0.892;2023-06-19T05:57:40;9.00;;;7.70;;
62927;SDS011;51070;52.236;-0.892;2023-06-19T06:00:06;12.00;;;7.60;;
62927;SDS011;51070;52.236;-0.892;2023-06-19T06:02:35;9.70;;;7.40;;
62927;SDS011;51070;52.236;-0.892;2023-06-19T06:05:01;10.90;;;7.50;;
62927;SDS011;51070;52.236;-0.892;2023-06-19T06:07:26;12.00;;;7.30;;
62927;SDS011;51070;52.236;-0.892;2023-06-19T06:09:53;10.40;;;8.00;;
62927;SDS011;51070;52.236;-0.892;2023-06-19T06:12:19;9.70;;;7.80;;
62927;SDS011;51070;52.236;-0.892;2023-06-19T06:14:44;10.20;;;7.60;;
62927;SDS011;51070;52.236;-0.892;2023-06-19T06:17:10;9.70;;;7.00;;
62927;SDS011;51070;52.236;-0.892;2023-06-19T06:19:35;9.70;;;6.70;;
62927;SDS011;51070;52.236;-0.892;2023-06-19T06:22:02;9.20;;;6.70;;
62927;SDS011;51070;52.236;-0.892;2023-06-19T06:24:27;9.20;;;7.00;;
62927;SDS011;51070;52.236;-0.892;2023-06-19T06:26:53;9.70;;;6.80;;
62927;SDS011;51070;52.236;-0.892;2023-06-19T06:29:18;8.00;;;7.00;;
62927;SDS011;51070;52.236;-0.892;2023-06-19T06:31:45;7.90;;;6.60;;
62927;SDS011;51070;52.236;-0.892;2023-06-19T06:34:12;7.30;;;6.40;;
62927;SDS011;51070;52.236;-0.892;2023-06-19T06:36:38;6.80;;;6.10;;
62927;SDS011;51070;52.236;-0.892;2023-06-19T06:39:04;7.40;;;6.00;;
62927;SDS011;51070;52.236;-0.892;2023-06-19T06:41:31;12.50;;;6.80;;
62927;SDS011;51070;52.236;-0.892;2023-06-19T06:43:56;7.40;;;6.60;;
62927;SDS011;51070;52.236;-0.892;2023-06-19T06:46:22;8.80;;;6.80;;
62927;SDS011;51070;52.236;-0.892;2023-06-19T06:48:48;7.40;;;6.60;;
62927;SDS011;51070;52.236;-0.892;2023-06-19T06:51:14;8.50;;;6.90;;
62927;SDS011;51070;52.236;-0.892;2023-06-19T06:53:40;8.00;;;6.30;;
62927;SDS011;51070;52.236;-0.892;2023-06-19T06:56:05;5.10;;;4.60;;
62927;SDS011;51070;52.236;-0.892;2023-06-19T06:58:31;6.50;;;5.90;;
62927;SDS011;51070;52.236;-0.892;2023-06-19T07:00:56;7.40;;;6.00;;
62927;SDS011;51070;52.236;-0.892;2023-06-19T07:03:21;9.90;;;6.70;;
62927;SDS011;51070;52.236;-0.892;2023-06-19T07:05:47;9.40;;;7.90;;
62927;SDS011;51070;52.236;-0.892;2023-06-19T07:08:13;9.70;;;7.50;;
62927;SDS011;51070;52.236;-0.892;2023-06-19T07:10:39;8.80;;;6.70;;
62927;SDS011;51070;52.236;-0.892;2023-06-19T07:13:05;13.60;;;7.80;;
62927;SDS011;51070;52.236;-0.892;2023-06-19T07:15:30;9.60;;;6.80;;
62927;SDS011;51070;52.236;-0.892;2023-06-19T07:17:55;9.10;;;7.80;;
62927;SDS011;51070;52.236;-0.892;2023-06-19T07:20:22;13.00;;;7.90;;
62927;SDS011;51070;52.236;-0.892;2023-06-19T07:22:47;10.50;;;7.90;;
62927;SDS011;51070;52.236;-0.892;2023-06-19T07:25:16;10.60;;;7.60;;
62927;SDS011;51070;52.236;-0.892;2023-06-19T07:27:42;11.00;;;6.80;;
62927;SDS011;51070;52.236;-0.892;2023-06-19T07:30:08;14.20;;;7.10;;
62927;SDS011;51070;52.236;-0.892;2023-06-19T07:32:34;9.10;;;6.70;;
62927;SDS011;51070;52.236;-0.892;2023-06-19T07:34:59;7.30;;;5.40;;
62927;SDS011;51070;52.236;-0.892;2023-06-19T07:37:25;7.90;;;5.80;;
62927;SDS011;51070;52.236;-0.892;2023-06-19T07:39:51;7.00;;;6.20;;
62927;SDS011;51070;52.236;-0.892;2023-06-19T07:42:18;8.00;;;5.20;;
62927;SDS011;51070;52.236;-0.892;2023-06-19T07:44:44;12.20;;;7.20;;
62927;SDS011;51070;52.236;-0.892;2023-06-19T07:47:10;8.00;;;6.10;;
62927;SDS011;51070;52.236;-0.892;2023-06-19T07:49:36;6.10;;;4.40;;
62927;SDS011;51070;52.236;-0.892;2023-06-19T07:52:02;8.20;;;5.80;;
62927;SDS011;51070;52.236;-0.892;2023-06-19T07:54:28;8.50;;;5.60;;
62927;SDS011;51070;52.236;-0.892;2023-06-19T07:56:54;7.60;;;5.60;;
62927;SDS011;51070;52.236;-0.892;2023-06-19T07:59:19;7.80;;;5.60;;
62927;SDS011;51070;52.236;-0.892;2023-06-19T08:01:45;9.00;;;6.40;;
62927;SDS011;51070;52.236;-0.892;2023-06-19T08:04:11;9.10;;;6.30;;
62927;SDS011;51070;52.236;-0.892;2023-06-19T08:06:36;7.90;;;6.00;;
62927;SDS011;51070;52.236;-0.892;2023-06-19T08:09:02;10.20;;;5.70;;
62927;SDS011;51070;52.236;-0.892;2023-06-19T08:11:28;8.30;;;5.80;;
62927;SDS011;51070;52.236;-0.892;2023-06-19T08:13:54;6.40;;;4.90;;
62927;SDS011;51070;52.236;-0.892;2023-06-19T08:16:19;7.40;;;4.90;;
62927;SDS011;51070;52.236;-0.892;2023-06-19T08:18:49;6.70;;;4.80;;
62927;SDS011;51070;52.236;-0.892;2023-06-19T08:21:14;8.80;;;4.60;;
62927;SDS011;51070;52.236;-0.892;2023-06-19T08:23:40;5.20;;;4.30;;
62927;SDS011;51070;52.236;-0.892;2023-06-19T08:26:08;5.60;;;4.30;;
62927;SDS011;51070;52.236;-0.892;2023-06-19T08:28:34;9.10;;;5.60;;
62927;SDS011;51070;52.236;-0.892;2023-06-19T08:30:59;6.50;;;4.40;;
62927;SDS011;51070;52.236;-0.892;2023-06-19T08:33:25;8.70;;;4.80;;
62927;SDS011;51070;52.236;-0.892;2023-06-19T08:35:50;7.80;;;5.00;;
62927;SDS011;51070;52.236;-0.892;2023-06-19T08:38:16;7.20;;;5.10;;
62927;SDS011;51070;52.236;-0.892;2023-06-19T08:40:41;6.60;;;4.40;;
62927;SDS011;51070;52.236;-0.892;2023-06-19T08:43:10;8.30;;;5.40;;
62927;SDS011;51070;52.236;-0.892;2023-06-19T08:45:36;9.40;;;5.20;;
62927;SDS011;51070;52.236;-0.892;2023-06-19T08:48:02;6.80;;;4.80;;
62927;SDS011;51070;52.236;-0.892;2023-06-19T08:50:29;7.00;;;5.20;;
62927;SDS011;51070;52.236;-0.892;2023-06-19T08:52:55;6.30;;;4.50;;
62927;SDS011;51070;52.236;-0.892;2023-06-19T08:55:22;5.90;;;4.40;;
62927;SDS011;51070;52.236;-0.892;2023-06-19T08:57:48;6.70;;;4.50;;
62927;SDS011;51070;52.236;-0.892;2023-06-19T09:00:24;6.20;;;4.50;;
62927;SDS011;51070;52.236;-0.892;2023-06-19T09:02:51;7.00;;;4.50;;
62927;SDS011;51070;52.236;-0.892;2023-06-19T09:05:18;6.40;;;4.10;;
62927;SDS011;51070;52.236;-0.892;2023-06-19T09:07:53;5.40;;;4.20;;
62927;SDS011;51070;52.236;-0.892;2023-06-19T09:10:23;7.10;;;3.90;;
62927;SDS011;51070;52.236;-0.892;2023-06-19T09:12:59;6.70;;;4.20;;
62927;SDS011;51070;52.236;-0.892;2023-06-19T09:15:33;5.60;;;4.00;;
62927;SDS011;51070;52.236;-0.892;2023-06-19T09:20:33;4.50;;;4.00;;
62927;SDS011;51070;52.236;-0.892;2023-06-19T09:23:04;6.30;;;3.40;;
62927;SDS011;51070;52.236;-0.892;2023-06-19T09:25:30;5.80;;;3.50;;
62927;SDS011;51070;52.236;-0.892;2023-06-19T09:27:55;5.00;;;3.80;;
62927;SDS011;51070;52.236;-0.892;2023-06-19T09:30:22;6.40;;;4.80;;
62927;SDS011;51070;52.236;-0.892;2023-06-19T09:32:48;6.00;;;4.00;;
62927;SDS011;51070;52.236;-0.892;2023-06-19T09:35:14;8.10;;;4.60;;
62927;SDS011;51070;52.236;-0.892;2023-06-19T09:37:40;6.40;;;4.00;;
62927;SDS011;51070;52.236;-0.892;2023-06-19T09:40:06;6.20;;;4.00;;
62927;SDS011;51070;52.236;-0.892;2023-06-19T09:42:39;5.80;;;4.00;;
62927;SDS011;51070;52.236;-0.892;2023-06-19T09:45:07;6.40;;;4.40;;
62927;SDS011;51070;52.236;-0.892;2023-06-19T09:47:44;4.90;;;3.70;;
62927;SDS011;51070;52.236;-0.892;2023-06-19T09:50:12;5.60;;;4.00;;
62927;SDS011;51070;52.236;-0.892;2023-06-19T09:52:42;5.30;;;3.40;;
62927;SDS011;51070;52.236;-0.892;2023-06-19T09:55:09;6.00;;;3.90;;
62927;SDS011;51070;52.236;-0.892;2023-06-19T09:57:40;6.30;;;4.40;;
62927;SDS011;51070;52.236;-0.892;2023-06-19T10:00:08;6.20;;;4.20;;
62927;SDS011;51070;52.236;-0.892;2023-06-19T10:02:42;6.50;;;4.70;;
62927;SDS011;51070;52.236;-0.892;2023-06-19T10:05:09;7.10;;;4.40;;
62927;SDS011;51070;52.236;-0.892;2023-06-19T10:07:41;7.80;;;4.10;;
62927;SDS011;51070;52.236;-0.892;2023-06-19T10:10:09;5.70;;;4.20;;
62927;SDS011;51070;52.236;-0.892;2023-06-19T10:15:13;5.10;;;3.60;;
62927;SDS011;51070;52.236;-0.892;2023-06-19T10:17:46;4.30;;;3.00;;
62927;SDS011;51070;52.236;-0.892;2023-06-19T10:22:57;7.00;;;3.90;;
62927;SDS011;51070;52.236;-0.892;2023-06-19T10:25:29;6.90;;;3.60;;
62927;SDS011;51070;52.236;-0.892;2023-06-19T10:27:57;3.10;;;2.60;;
62927;SDS011;51070;52.236;-0.892;2023-06-19T10:30:23;3.90;;;2.60;;
62927;SDS011;51070;52.236;-0.892;2023-06-19T10:32:49;6.70;;;2.90;;
62927;SDS011;51070;52.236;-0.892;2023-06-19T10:35:16;5.00;;;2.80;;
62927;SDS011;51070;52.236;-0.892;2023-06-19T10:37:43;4.10;;;2.80;;
62927;SDS011;51070;52.236;-0.892;2023-06-19T10:40:10;4.60;;;3.00;;
62927;SDS011;51070;52.236;-0.892;2023-06-19T10:42:37;3.60;;;2.90;;
62927;SDS011;51070;52.236;-0.892;2023-06-19T10:45:04;4.40;;;2.60;;
62927;SDS011;51070;52.236;-0.892;2023-06-19T10:47:34;6.10;;;2.70;;
62927;SDS011;51070;52.236;-0.892;2023-06-19T10:50:01;3.80;;;2.60;;
62927;SDS011;51070;52.236;-0.892;2023-06-19T10:52:30;4.80;;;3.30;;
62927;SDS011;51070;52.236;-0.892;2023-06-19T10:54:56;4.30;;;2.80;;
62927;SDS011;51070;52.236;-0.892;2023-06-19T10:57:29;4.60;;;2.60;;
62927;SDS011;51070;52.236;-0.892;2023-06-19T10:59:55;3.50;;;2.40;;
62927;SDS011;51070;52.236;-0.892;2023-06-19T11:02:22;6.70;;;3.10;;
62927;SDS011;51070;52.236;-0.892;2023-06-19T11:04:48;4.90;;;2.90;;
62927;SDS011;51070;52.236;-0.892;2023-06-19T11:07:13;4.60;;;3.30;;
62927;SDS011;51070;52.236;-0.892;2023-06-19T11:09:39;5.50;;;2.90;;
62927;SDS011;51070;52.236;-0.892;2023-06-19T11:12:04;4.20;;;2.90;;
62927;SDS011;51070;52.236;-0.892;2023-06-19T11:14:33;4.20;;;2.70;;
62927;SDS011;51070;52.236;-0.892;2023-06-19T11:17:07;3.40;;;2.60;;
62927;SDS011;51070;52.236;-0.892;2023-06-19T11:19:33;4.00;;;2.70;;
62927;SDS011;51070;52.236;-0.892;2023-06-19T11:21:59;4.80;;;2.90;;
62927;SDS011;51070;52.236;-0.892;2023-06-19T11:24:28;4.70;;;2.80;;
62927;SDS011;51070;52.236;-0.892;2023-06-19T11:26:55;4.20;;;2.60;;
62927;SDS011;51070;52.236;-0.892;2023-06-19T11:31:51;4.20;;;3.10;;
62927;SDS011;51070;52.236;-0.892;2023-06-19T11:34:30;3.60;;;2.60;;
62927;SDS011;51070;52.236;-0.892;2023-06-19T11:36:57;4.30;;;2.70;;
62927;SDS011;51070;52.236;-0.892;2023-06-19T11:39:23;4.70;;;2.60;;
62927;SDS011;51070;52.236;-0.892;2023-06-19T11:41:48;4.00;;;2.90;;
62927;SDS011;51070;52.236;-0.892;2023-06-19T11:44:14;5.50;;;3.10;;
62927;SDS011;51070;52.236;-0.892;2023-06-19T11:46:39;3.50;;;2.80;;
62927;SDS011;51070;52.236;-0.892;2023-06-19T11:49:15;4.90;;;2.70;;
62927;SDS011;51070;52.236;-0.892;2023-06-19T11:51:44;5.90;;;2.70;;
62927;SDS011;51070;52.236;-0.892;2023-06-19T11:54:10;4.20;;;2.60;;
62927;SDS011;51070;52.236;-0.892;2023-06-19T11:56:38;3.20;;;2.80;;
62927;SDS011;51070;52.236;-0.892;2023-06-19T11:59:04;4.20;;;2.30;;
62927;SDS011;51070;52.236;-0.892;2023-06-19T12:01:33;3.60;;;2.60;;
62927;SDS011;51070;52.236;-0.892;2023-06-19T12:04:03;3.50;;;2.60;;
62927;SDS011;51070;52.236;-0.892;2023-06-19T12:06:29;4.90;;;2.20;;
62927;SDS011;51070;52.236;-0.892;2023-06-19T12:08:55;3.70;;;2.30;;
62927;SDS011;51070;52.236;-0.892;2023-06-19T12:11:21;3.20;;;2.30;;
62927;SDS011;51070;52.236;-0.892;2023-06-19T12:13:47;4.40;;;2.70;;
62927;SDS011;51070;52.236;-0.892;2023-06-19T12:16:12;4.70;;;2.60;;
62927;SDS011;51070;52.236;-0.892;2023-06-19T12:18:39;6.00;;;2.80;;
62927;SDS011;51070;52.236;-0.892;2023-06-19T12:21:05;3.80;;;2.80;;
62927;SDS011;51070;52.236;-0.892;2023-06-19T12:23:31;5.10;;;2.70;;
62927;SDS011;51070;52.236;-0.892;2023-06-19T12:25:57;3.30;;;2.50;;
62927;SDS011;51070;52.236;-0.892;2023-06-19T12:28:22;5.60;;;2.80;;
62927;SDS011;51070;52.236;-0.892;2023-06-19T12:30:48;3.70;;;2.40;;
62927;SDS011;51070;52.236;-0.892;2023-06-19T12:33:19;4.30;;;2.90;;
62927;SDS011;51070;52.236;-0.892;2023-06-19T12:35:48;3.60;;;2.50;;
62927;SDS011;51070;52.236;-0.892;2023-06-19T12:38:14;3.60;;;2.40;;
62927;SDS011;51070;52.236;-0.892;2023-06-19T12:40:39;3.60;;;2.00;;
62927;SDS011;51070;52.236;-0.892;2023-06-19T12:43:05;4.40;;;2.40;;
62927;SDS011;51070;52.236;-0.892;2023-06-19T12:45:31;5.30;;;2.30;;
62927;SDS011;51070;52.236;-0.892;2023-06-19T12:47:57;3.70;;;2.30;;
62927;SDS011;51070;52.236;-0.892;2023-06-19T12:50:22;3.70;;;2.10;;
62927;SDS011;51070;52.236;-0.892;2023-06-19T12:52:48;4.50;;;2.30;;
62927;SDS011;51070;52.236;-0.892;2023-06-19T12:55:15;5.20;;;1.80;;
62927;SDS011;51070;52.236;-0.892;2023-06-19T12:57:40;3.80;;;2.30;;
62927;SDS011;51070;52.236;-0.892;2023-06-19T13:00:09;4.20;;;2.30;;
62927;SDS011;51070;52.236;-0.892;2023-06-19T13:02:38;3.20;;;2.10;;
62927;SDS011;51070;52.236;-0.892;2023-06-19T13:05:05;3.70;;;2.00;;
62927;SDS011;51070;52.236;-0.892;2023-06-19T13:07:31;4.80;;;2.50;;
62927;SDS011;51070;52.236;-0.892;2023-06-19T13:09:57;4.30;;;2.40;;
62927;SDS011;51070;52.236;-0.892;2023-06-19T13:12:23;3.20;;;2.00;;
62927;SDS011;51070;52.236;-0.892;2023-06-19T13:14:49;3.00;;;2.20;;
62927;SDS011;51070;52.236;-0.892;2023-06-19T13:17:14;6.30;;;1.90;;
62927;SDS011;51070;52.236;-0.892;2023-06-19T13:19:40;3.50;;;2.60;;
62927;SDS011;51070;52.236;-0.892;2023-06-19T13:22:05;4.40;;;2.30;;
62927;SDS011;51070;52.236;-0.892;2023-06-19T13:24:31;6.40;;;2.80;;
62927;SDS011;51070;52.236;-0.892;2023-06-19T13:26:56;3.60;;;1.90;;
62927;SDS011;51070;52.236;-0.892;2023-06-19T13:29:22;3.20;;;2.00;;
62927;SDS011;51070;52.236;-0.892;2023-06-19T13:31:47;3.10;;;2.10;;
62927;SDS011;51070;52.236;-0.892;2023-06-19T13:34:13;4.40;;;2.40;;
62927;SDS011;51070;52.236;-0.892;2023-06-19T13:36:38;7.20;;;2.20;;
62927;SDS011;51070;52.236;-0.892;2023-06-19T13:39:04;4.40;;;2.40;;
62927;SDS011;51070;52.236;-0.892;2023-06-19T13:41:30;5.30;;;2.50;;
62927;SDS011;51070;52.236;-0.892;2023-06-19T13:43:59;2.80;;;1.90;;
62927;SDS011;51070;52.236;-0.892;2023-06-19T13:46:25;4.70;;;1.90;;
62927;SDS011;51070;52.236;-0.892;2023-06-19T13:48:51;3.90;;;2.20;;
62927;SDS011;51070;52.236;-0.892;2023-06-19T13:51:18;2.70;;;1.90;;
62927;SDS011;51070;52.236;-0.892;2023-06-19T13:53:44;5.90;;;2.40;;
62927;SDS011;51070;52.236;-0.892;2023-06-19T13:56:10;3.70;;;2.10;;
62927;SDS011;51070;52.236;-0.892;2023-06-19T13:58:37;2.80;;;2.10;;
62927;SDS011;51070;52.236;-0.892;2023-06-19T14:01:03;3.20;;;1.80;;
62927;SDS011;51070;52.236;-0.892;2023-06-19T14:03:28;5.70;;;2.00;;
62927;SDS011;51070;52.236;-0.892;2023-06-19T14:05:54;2.80;;;2.00;;
62927;SDS011;51070;52.236;-0.892;2023-06-19T14:08:20;4.40;;;2.50;;
62927;SDS011;51070;52.236;-0.892;2023-06-19T14:10:46;3.00;;;2.00;;
62927;SDS011;51070;52.236;-0.892;2023-06-19T14:13:11;4.00;;;2.40;;
62927;SDS011;51070;52.236;-0.892;2023-06-19T14:15:36;3.60;;;2.40;;
62927;SDS011;51070;52.236;-0.892;2023-06-19T14:18:02;4.00;;;2.10;;
62927;SDS011;51070;52.236;-0.892;2023-06-19T14:20:27;4.90;;;2.60;;
62927;SDS011;51070;52.236;-0.892;2023-06-19T14:22:53;3.40;;;2.20;;
62927;SDS011;51070;52.236;-0.892;2023-06-19T14:25:18;3.80;;;2.50;;
62927;SDS011;51070;52.236;-0.892;2023-06-19T14:27:43;4.30;;;2.50;;
62927;SDS011;51070;52.236;-0.892;2023-06-19T14:30:09;4.30;;;2.40;;
62927;SDS011;51070;52.236;-0.892;2023-06-19T14:32:35;3.70;;;2.20;;
62927;SDS011;51070;52.236;-0.892;2023-06-19T14:35:04;3.60;;;2.10;;
62927;SDS011;51070;52.236;-0.892;2023-06-19T14:37:30;5.10;;;2.60;;
62927;SDS011;51070;52.236;-0.892;2023-06-19T14:39:55;5.30;;;2.80;;
62927;SDS011;51070;52.236;-0.892;2023-06-19T14:42:21;10.10;;;2.80;;